Blues — ZGAQ9 — position and weather

sailwx.info

Track history (hours):
 
Tides and Currents Weather Stations Pressure Air Temp Water Temp Dewpoint Dewpoint Depression Visibility Wind Speed Wind Dir Waves Ship Positions

Blues

Last reported at 2014-May-30 22:09 UTC. Time now 2014-Jul-31 21:40 UTC.
Position N 41°35' W 071°17'.
Warning: this ship's position is months out of date.

Type: Sailing vessel. MMSI: 319031700.

Date/timePositionNaut miles runAvg speedWind from/ knotsBaromVisibWave heightAir tempDewpointWater temp
2014-May-30 22:09N 41°35' W 071°17'0 0.0
2014-May-30 16:09N 41°35' W 071°17'0 0.0
2014-May-30 12:27N 41°35' W 071°17'0 0.0
2014-May-30 11:27N 41°35' W 071°17'0 0.0
2014-May-30 10:33N 41°35' W 071°17'0 0.0
2014-May-30 09:30N 41°35' W 071°17'0 0.0
2014-May-30 08:21N 41°35' W 071°17'0 0.0
2014-May-30 07:33N 41°35' W 071°17'0 0.0
2014-May-30 06:33N 41°35' W 071°17'0 0.0
2014-May-30 05:27N 41°35' W 071°17'0 0.0
2014-May-30 04:30N 41°35' W 071°17'0 0.0
2014-May-30 03:33N 41°35' W 071°17'0 0.0
2014-May-30 02:21N 41°35' W 071°17'0 0.0
2014-May-30 01:21N 41°35' W 071°17'0 0.0
2014-May-30 00:09N 41°35' W 071°17'2 0.5
2014-May-29 20:24N 41°34' W 071°19'4 4.8
2014-May-29 19:32N 41°29' W 071°19'1 0.0
2014-May-28 07:32N 41°29' W 071°20'6 5.7
2014-May-28 06:33N 41°23' W 071°20'9 9.4
2014-May-28 05:33N 41°15' W 071°15'10 9.9
2014-May-28 04:33N 41°06' W 071°10'1110.5
2014-May-28 03:28N 40°56' W 071°02'63 9.9
2014-May-27 21:04N 39°59' W 070°26'510.0
2014-May-27 20:33N 39°54' W 070°23'11 9.9
2014-May-27 19:29N 39°45' W 070°17'  
Track history (hours):
 
Tides and Currents Weather Stations Pressure Air Temp Water Temp Dewpoint Dewpoint Depression Visibility Wind Speed Wind Dir Waves Ship Positions

Blues

Last reported at 2014-May-30 22:09 UTC. Time now 2014-Jul-31 21:40 UTC.
Position N 41°35' W 071°17'.
Warning: this ship's position is months out of date.

Type: Sailing vessel. MMSI: 319031700.

Date/timePositionNaut miles runAvg speedWind from/ knotsBaromVisibWave heightAir tempDewpointWater temp
2014-May-30 22:09N 41°35' W 071°17'0 0.0
2014-May-30 16:09N 41°35' W 071°17'0 0.0
2014-May-30 12:27N 41°35' W 071°17'0 0.0
2014-May-30 11:27N 41°35' W 071°17'0 0.0
2014-May-30 10:33N 41°35' W 071°17'0 0.0
2014-May-30 09:30N 41°35' W 071°17'0 0.0
2014-May-30 08:21N 41°35' W 071°17'0 0.0
2014-May-30 07:33N 41°35' W 071°17'0 0.0
2014-May-30 06:33N 41°35' W 071°17'0 0.0
2014-May-30 05:27N 41°35' W 071°17'0 0.0
2014-May-30 04:30N 41°35' W 071°17'0 0.0
2014-May-30 03:33N 41°35' W 071°17'0 0.0
2014-May-30 02:21N 41°35' W 071°17'0 0.0
2014-May-30 01:21N 41°35' W 071°17'0 0.0
2014-May-30 00:09N 41°35' W 071°17'2 0.5
2014-May-29 20:24N 41°34' W 071°19'4 4.8
2014-May-29 19:32N 41°29' W 071°19'1 0.0
2014-May-28 07:32N 41°29' W 071°20'6 5.7
2014-May-28 06:33N 41°23' W 071°20'9 9.4
2014-May-28 05:33N 41°15' W 071°15'10 9.9
2014-May-28 04:33N 41°06' W 071°10'1110.5
2014-May-28 03:28N 40°56' W 071°02'63 9.9
2014-May-27 21:04N 39°59' W 070°26'510.0
2014-May-27 20:33N 39°54' W 070°23'11 9.9
2014-May-27 19:29N 39°45' W 070°17'  

Dump ship's entire track history